Terminal Aerodrome Forecast
Issued by NWS

Home | Current Version | Previous Version | Text Only | Print | Product List | Glossary On
Versions: 1 2 3 4 5 6 7 8 9 10 11 12 13 14 15 16 17 18 19 20 21 22 23 24 25 26 27 28
000
FTUS44 KCRP 301720
TAFCOT
TAF
KCOT 301720Z 3018/3118 19007KT P6SM BKN020
      TEMPO 3018/3022 P6SM OVC009
     FM302300 VRB04KT P6SM BKN030
     FM310600 34005KT P6SM SCT040
     FM310900 24010KT P6SM SCT050=

USA.gov is the U.S. government's official web portal to all federal, state and local government web resources and services.